createdAt,value
2023-03-04T00:02:03.308Z,2.75
2023-03-04T00:04:30.164Z,2.77
2023-03-04T00:06:57.059Z,2.79
2023-03-04T00:09:23.774Z,2.72
2023-03-04T00:11:50.440Z,2.67
2023-03-04T00:14:17.240Z,2.66
2023-03-04T00:16:44.125Z,2.59
2023-03-04T00:19:11.594Z,2.47
2023-03-04T00:21:38.428Z,2.38
2023-03-04T00:24:05.414Z,2.30
2023-03-04T00:26:33.949Z,2.19
2023-03-04T00:29:00.676Z,2.11
2023-03-04T00:31:27.441Z,2.10
2023-03-04T00:33:55.693Z,2.04
2023-03-04T00:36:22.371Z,2.01
2023-03-04T00:38:49.140Z,2.05
2023-03-04T00:41:15.877Z,2.09
2023-03-04T00:43:42.658Z,2.15
2023-03-04T00:46:09.425Z,2.20
2023-03-04T00:48:36.264Z,2.20
2023-03-04T00:51:03.309Z,2.20
2023-03-04T00:53:30.021Z,2.18
2023-03-04T00:55:56.872Z,2.16
2023-03-04T00:58:23.565Z,2.12
2023-03-04T01:00:51.235Z,2.05
2023-03-04T01:03:18.678Z,2.02
2023-03-04T01:05:45.411Z,2.01
2023-03-04T01:08:12.081Z,2.03
2023-03-04T01:10:38.848Z,2.04
2023-03-04T01:13:05.962Z,2.05
2023-03-04T01:15:32.725Z,2.06
2023-03-04T01:17:59.551Z,2.08
2023-03-04T01:20:26.361Z,2.07
2023-03-04T01:22:53.146Z,2.02
2023-03-04T01:25:19.919Z,2.02
2023-03-04T01:27:46.609Z,2.01
2023-03-04T01:30:14.449Z,2.01
2023-03-04T01:32:41.535Z,2.00
2023-03-04T01:35:09.652Z,1.94
2023-03-04T01:37:36.389Z,1.91
2023-03-04T01:40:03.659Z,1.87
2023-03-04T01:42:34.093Z,1.83
2023-03-04T01:45:01.164Z,1.83
2023-03-04T01:47:32.356Z,1.76
2023-03-04T01:50:01.705Z,1.73
2023-03-04T01:52:28.896Z,1.70
2023-03-04T01:54:55.889Z,1.68
2023-03-04T01:57:26.021Z,1.65
2023-03-04T02:00:30.992Z,1.53
2023-03-04T02:03:11.407Z,1.55
2023-03-04T02:05:41.037Z,1.58
2023-03-04T02:08:09.234Z,1.54
2023-03-04T02:10:36.945Z,1.54
2023-03-04T02:13:25.553Z,1.50
2023-03-04T02:15:52.277Z,1.48
2023-03-04T02:18:21.401Z,1.50
2023-03-04T02:21:04.259Z,1.43
2023-03-04T02:23:37.894Z,1.46
2023-03-04T02:26:20.622Z,1.46
2023-03-04T02:28:52.930Z,1.50
2023-03-04T02:31:25.329Z,1.49
2023-03-04T02:33:54.280Z,1.46
2023-03-04T02:36:22.089Z,1.48
2023-03-04T02:38:51.519Z,1.48
2023-03-04T02:41:23.140Z,1.52
2023-03-04T02:43:52.334Z,1.57
2023-03-04T02:46:19.118Z,1.59
2023-03-04T02:48:46.043Z,1.62
2023-03-04T02:51:13.059Z,1.59
2023-03-04T02:53:39.828Z,1.58
2023-03-04T02:56:07.104Z,1.58
2023-03-04T02:58:38.346Z,1.58
2023-03-04T03:01:07.060Z,1.60
2023-03-04T03:03:33.835Z,1.59
2023-03-04T03:06:00.692Z,1.59
2023-03-04T03:08:27.558Z,1.62
2023-03-04T03:10:54.517Z,1.66
2023-03-04T03:13:22.624Z,1.64
2023-03-04T03:15:50.795Z,1.68
2023-03-04T03:18:17.641Z,1.71
2023-03-04T03:20:44.434Z,1.73
2023-03-04T03:23:11.231Z,1.76
2023-03-04T03:25:38.088Z,1.76
2023-03-04T03:28:05.933Z,1.73
2023-03-04T03:30:32.733Z,1.73
2023-03-04T03:32:59.498Z,1.70
2023-03-04T03:35:26.293Z,1.70
2023-03-04T03:37:53.056Z,1.65
2023-03-04T03:40:19.812Z,1.69
2023-03-04T03:42:46.671Z,1.68
2023-03-04T03:45:13.457Z,1.69
2023-03-04T03:47:40.161Z,1.71
2023-03-04T03:50:07.546Z,1.71
2023-03-04T03:52:34.422Z,1.75
2023-03-04T03:55:02.189Z,1.78
2023-03-04T03:57:30.476Z,1.82
2023-03-04T03:59:57.394Z,1.90
2023-03-04T04:02:24.421Z,1.94
2023-03-04T04:04:51.342Z,1.99
2023-03-04T04:07:18.264Z,2.02
2023-03-04T04:09:45.064Z,2.04
2023-03-04T04:12:14.903Z,2.09
2023-03-04T04:14:41.710Z,2.14
2023-03-04T04:17:08.800Z,2.18
2023-03-04T04:19:35.651Z,2.19
2023-03-04T04:22:03.293Z,2.23
2023-03-04T04:24:30.227Z,2.22
2023-03-04T04:26:57.509Z,2.21
2023-03-04T04:29:24.396Z,2.26
2023-03-04T04:31:51.321Z,2.30
2023-03-04T04:34:18.084Z,2.30
2023-03-04T04:36:44.831Z,2.34
2023-03-04T04:39:11.605Z,2.31
2023-03-04T04:41:40.939Z,2.35
2023-03-04T04:44:08.081Z,2.35
2023-03-04T04:46:35.011Z,2.37
2023-03-04T04:49:02.004Z,2.42
2023-03-04T04:51:29.038Z,2.43
2023-03-04T04:53:55.886Z,2.47
2023-03-04T04:56:26.389Z,2.48
2023-03-04T04:58:58.787Z,2.43
2023-03-04T05:01:26.105Z,2.36
2023-03-04T05:03:55.803Z,2.44
2023-03-04T05:06:24.270Z,2.43
2023-03-04T05:08:51.861Z,2.47
2023-03-04T05:11:19.673Z,2.47
2023-03-04T05:13:47.120Z,2.49
2023-03-04T05:16:14.701Z,2.46
2023-03-04T05:18:42.025Z,2.39
2023-03-04T05:21:08.972Z,2.41
2023-03-04T05:23:38.441Z,2.43
2023-03-04T05:26:06.527Z,2.39
2023-03-04T05:28:35.189Z,2.40
2023-03-04T05:31:02.005Z,2.40
2023-03-04T05:33:28.969Z,2.40
2023-03-04T05:35:55.776Z,2.38
2023-03-04T05:38:23.102Z,2.38
2023-03-04T05:40:50.392Z,2.42
2023-03-04T05:43:17.474Z,2.46
2023-03-04T05:45:44.253Z,2.54
2023-03-04T05:48:11.469Z,2.61
2023-03-04T05:50:38.235Z,2.64
2023-03-04T05:53:04.955Z,2.75
2023-03-04T05:55:31.738Z,2.83
2023-03-04T05:57:58.758Z,2.93
2023-03-04T06:00:26.234Z,3.02
2023-03-04T06:02:53.175Z,3.12
2023-03-04T06:05:20.422Z,3.31
2023-03-04T06:07:47.714Z,3.52
2023-03-04T06:10:16.804Z,3.83
2023-03-04T06:12:43.914Z,4.22
2023-03-04T06:15:11.955Z,4.58
2023-03-04T06:17:42.026Z,5.01
2023-03-04T06:20:10.941Z,5.45
2023-03-04T06:22:37.684Z,5.85
2023-03-04T06:25:06.312Z,6.21
2023-03-04T06:27:33.137Z,6.48
2023-03-04T06:30:02.058Z,6.75
2023-03-04T06:32:29.412Z,6.91
2023-03-04T06:34:56.360Z,7.11
2023-03-04T06:37:23.409Z,7.29
2023-03-04T06:39:50.499Z,7.47
2023-03-04T06:42:17.240Z,7.58
2023-03-04T06:44:43.945Z,7.82
2023-03-04T06:47:10.808Z,7.99
2023-03-04T06:49:37.591Z,8.19
2023-03-04T06:52:04.474Z,8.39
2023-03-04T06:54:31.319Z,8.56
2023-03-04T06:56:58.060Z,8.72
2023-03-04T06:59:24.976Z,8.77
2023-03-04T07:01:51.654Z,8.96
2023-03-04T07:04:18.571Z,9.22
2023-03-04T07:06:45.344Z,9.33
2023-03-04T07:09:12.070Z,9.54
2023-03-04T07:11:38.845Z,9.73
2023-03-04T07:14:05.534Z,9.79
2023-03-04T07:16:32.453Z,9.81
2023-03-04T07:18:59.407Z,9.98
2023-03-04T07:21:26.722Z,10.09
2023-03-04T07:23:53.568Z,10.26
2023-03-04T07:26:20.915Z,10.25
2023-03-04T07:28:47.662Z,10.09
2023-03-04T07:31:25.344Z,9.88
2023-03-04T07:33:52.267Z,10.11
2023-03-04T07:36:20.080Z,10.22
2023-03-04T07:38:48.527Z,10.33
2023-03-04T07:41:17.719Z,10.44
2023-03-04T07:43:45.096Z,10.47
2023-03-04T07:46:12.451Z,10.46
2023-03-04T07:48:39.688Z,10.40
2023-03-04T07:51:10.763Z,10.18
2023-03-04T07:53:38.782Z,10.38
2023-03-04T07:56:06.607Z,10.34
2023-03-04T07:58:33.615Z,10.19
2023-03-04T08:01:00.390Z,10.05
2023-03-04T08:03:28.779Z,10.34
2023-03-04T08:05:55.516Z,10.68
2023-03-04T08:08:22.828Z,10.82
2023-03-04T08:10:49.494Z,11.01
2023-03-04T08:13:16.238Z,10.80
2023-03-04T08:15:43.611Z,10.76
2023-03-04T08:18:10.451Z,10.61
2023-03-04T08:20:37.234Z,10.62
2023-03-04T08:23:04.281Z,10.82
2023-03-04T08:25:31.042Z,11.02
2023-03-04T08:27:58.779Z,11.11
2023-03-04T08:30:25.484Z,11.07
2023-03-04T08:32:52.247Z,11.02
2023-03-04T08:35:19.039Z,11.10
2023-03-04T08:37:47.078Z,11.25
2023-03-04T08:40:14.753Z,11.38
2023-03-04T08:42:42.697Z,11.52
2023-03-04T08:45:10.499Z,11.62
2023-03-04T08:47:37.757Z,11.76
2023-03-04T08:50:06.426Z,12.02
2023-03-04T08:52:33.430Z,11.71
2023-03-04T08:55:00.387Z,11.71
2023-03-04T08:57:31.881Z,11.63
2023-03-04T08:59:58.569Z,11.50
2023-03-04T09:02:25.292Z,11.51
2023-03-04T09:04:52.070Z,11.29
2023-03-04T09:07:18.936Z,11.19
2023-03-04T09:09:45.712Z,10.84
2023-03-04T09:12:12.507Z,10.97
2023-03-04T09:14:39.215Z,11.21
2023-03-04T09:17:06.370Z,11.39
2023-03-04T09:19:33.211Z,11.44
2023-03-04T09:21:59.982Z,11.50
2023-03-04T09:24:27.143Z,11.36
2023-03-04T09:26:55.159Z,11.47
2023-03-04T09:29:22.331Z,11.47
2023-03-04T09:31:49.122Z,11.41
2023-03-04T09:34:15.901Z,11.44
2023-03-04T09:36:42.691Z,11.39
2023-03-04T09:39:09.489Z,11.35
2023-03-04T09:41:53.174Z,11.27
2023-03-04T09:44:31.026Z,11.17
2023-03-04T09:47:04.384Z,11.07
2023-03-04T09:49:32.048Z,10.88
2023-03-04T09:52:18.310Z,10.87
2023-03-04T09:54:47.899Z,10.87
2023-03-04T09:57:42.583Z,10.51
2023-03-04T10:00:20.000Z,10.58
2023-03-04T10:03:28.589Z,10.49
2023-03-04T10:06:02.936Z,10.66
2023-03-04T10:08:50.691Z,10.38
2023-03-04T10:11:37.719Z,10.25
2023-03-04T10:14:12.526Z,10.29
2023-03-04T10:16:54.222Z,10.32
2023-03-04T10:19:43.772Z,10.27
2023-03-04T10:22:47.038Z,10.12
2023-03-04T10:25:20.980Z,9.96
2023-03-04T10:28:17.604Z,9.76
2023-03-04T10:31:10.085Z,9.84
2023-03-04T10:33:39.379Z,10.05
2023-03-04T10:36:30.233Z,10.14
2023-03-04T10:39:10.915Z,10.10
2023-03-04T10:41:37.818Z,10.42
2023-03-04T10:44:10.075Z,10.31
2023-03-04T10:46:41.105Z,10.30
2023-03-04T10:49:10.061Z,10.32
2023-03-04T10:51:45.508Z,10.51
2023-03-04T10:54:35.271Z,10.72
2023-03-04T10:57:05.583Z,10.74
2023-03-04T10:59:35.454Z,10.94
2023-03-04T11:02:22.385Z,10.94
2023-03-04T11:04:53.741Z,11.07
2023-03-04T11:07:22.801Z,10.99
2023-03-04T11:09:49.783Z,10.98
2023-03-04T11:12:20.177Z,11.06
2023-03-04T11:14:52.399Z,11.19
2023-03-04T11:17:42.011Z,11.30
2023-03-04T11:20:29.730Z,11.27
2023-03-04T11:22:59.945Z,11.44
2023-03-04T11:25:40.863Z,11.48
2023-03-04T11:28:36.566Z,11.62
2023-03-04T11:31:31.538Z,11.68
2023-03-04T11:34:28.620Z,11.63
2023-03-04T11:37:01.966Z,11.64
2023-03-04T11:39:56.810Z,11.48
2023-03-04T11:42:32.657Z,11.71
2023-03-04T11:45:00.632Z,11.83
2023-03-04T11:47:44.193Z,11.80
2023-03-04T11:50:10.826Z,11.61
2023-03-04T11:53:00.576Z,11.92
2023-03-04T11:55:45.744Z,12.04
2023-03-04T11:58:27.435Z,11.98
2023-03-04T12:00:56.824Z,12.12
2023-03-04T12:03:29.266Z,12.19
2023-03-04T12:06:28.392Z,12.04
2023-03-04T12:09:08.884Z,12.17
2023-03-04T12:12:02.965Z,11.99
2023-03-04T12:14:29.675Z,12.09
2023-03-04T12:17:22.723Z,11.95
2023-03-04T12:20:02.661Z,11.82
2023-03-04T12:22:44.409Z,11.61
2023-03-04T12:25:15.700Z,11.57
2023-03-04T12:28:21.260Z,11.51
2023-03-04T12:31:03.963Z,11.60
2023-03-04T12:33:55.443Z,11.53
2023-03-04T12:37:00.239Z,11.45
2023-03-04T12:40:13.404Z,11.55
2023-03-04T12:43:14.966Z,11.46
2023-03-04T12:45:44.819Z,11.50
2023-03-04T12:48:20.284Z,11.46
2023-03-04T12:51:17.479Z,11.46
2023-03-04T12:53:58.446Z,11.58
2023-03-04T12:56:39.109Z,11.68
2023-03-04T12:59:07.980Z,11.74
2023-03-04T13:01:41.823Z,11.82
2023-03-04T13:04:12.762Z,11.87
2023-03-04T13:07:08.862Z,11.92
2023-03-04T13:09:58.890Z,12.00
2023-03-04T13:12:25.970Z,12.12
2023-03-04T13:15:07.895Z,12.10
2023-03-04T13:17:43.855Z,12.19
2023-03-04T13:20:41.417Z,12.19
2023-03-04T13:23:13.879Z,12.30
2023-03-04T13:25:56.965Z,12.34
2023-03-04T13:28:24.700Z,12.30
2023-03-04T13:30:59.433Z,12.27
2023-03-04T13:33:26.122Z,12.20
2023-03-04T13:36:04.317Z,11.89
2023-03-04T13:38:31.249Z,11.92
2023-03-04T13:41:14.043Z,11.75
2023-03-04T13:44:32.004Z,11.52
2023-03-04T13:47:07.310Z,11.58
2023-03-04T13:49:34.673Z,11.38
2023-03-04T13:52:47.715Z,11.28
2023-03-04T13:55:33.278Z,11.26
2023-03-04T13:58:00.231Z,11.24
2023-03-04T14:00:28.801Z,10.97
2023-03-04T14:02:55.604Z,11.07
2023-03-04T14:05:22.646Z,11.03
2023-03-04T14:07:49.389Z,10.90
2023-03-04T14:10:24.859Z,10.85
2023-03-04T14:12:55.533Z,10.85
2023-03-04T14:15:26.556Z,10.91
2023-03-04T14:18:02.080Z,10.72
2023-03-04T14:20:33.988Z,10.52
2023-03-04T14:23:03.216Z,10.44
2023-03-04T14:25:32.712Z,10.33
2023-03-04T14:28:16.778Z,9.97
2023-03-04T14:30:51.423Z,9.86
2023-03-04T14:33:29.926Z,9.65
2023-03-04T14:36:00.236Z,9.55
2023-03-04T14:38:32.065Z,9.69
2023-03-04T14:41:10.433Z,9.55
2023-03-04T14:43:47.119Z,9.48
2023-03-04T14:46:19.121Z,9.42
2023-03-04T14:48:52.718Z,9.40
2023-03-04T14:51:42.446Z,9.46
2023-03-04T14:54:36.588Z,9.46
2023-03-04T14:57:25.987Z,9.24
2023-03-04T14:59:53.876Z,9.21
2023-03-04T15:02:33.890Z,9.10
2023-03-04T15:05:17.025Z,9.05
2023-03-04T15:07:45.138Z,8.70
2023-03-04T15:10:13.149Z,8.92
2023-03-04T15:12:39.899Z,8.87
2023-03-04T15:15:39.874Z,8.85
2023-03-04T15:18:26.541Z,8.80
2023-03-04T15:20:58.018Z,8.80
2023-03-04T15:23:25.634Z,8.81
2023-03-04T15:25:58.166Z,8.75
2023-03-04T15:28:25.829Z,8.77
2023-03-04T15:30:53.216Z,8.62
2023-03-04T15:33:21.262Z,8.55
2023-03-04T15:36:02.497Z,8.40
2023-03-04T15:38:30.452Z,8.64
2023-03-04T15:40:59.696Z,8.45
2023-03-04T15:43:27.034Z,8.41
2023-03-04T15:45:54.386Z,8.15
2023-03-04T15:48:21.726Z,8.24
2023-03-04T15:51:00.675Z,7.92
2023-03-04T15:53:40.916Z,7.93
2023-03-04T15:56:15.188Z,8.05
2023-03-04T15:58:43.256Z,7.99
2023-03-04T16:01:14.937Z,7.92
2023-03-04T16:03:41.717Z,7.74
2023-03-04T16:06:18.797Z,7.61
2023-03-04T16:08:46.449Z,7.54
2023-03-04T16:11:25.531Z,7.42
2023-03-04T16:13:52.519Z,7.31
2023-03-04T16:16:20.178Z,7.28
2023-03-04T16:18:46.966Z,7.27
2023-03-04T16:21:17.200Z,7.21
2023-03-04T16:23:47.098Z,7.30
2023-03-04T16:26:17.734Z,7.11
2023-03-04T16:28:44.716Z,7.14
2023-03-04T16:31:13.749Z,6.94
2023-03-04T16:33:40.731Z,6.92
2023-03-04T16:36:23.834Z,6.89
2023-03-04T16:38:51.926Z,6.93
2023-03-04T16:41:26.132Z,6.97
2023-03-04T16:43:53.528Z,6.78
2023-03-04T16:46:21.900Z,6.78
2023-03-04T16:48:48.968Z,6.76
2023-03-04T16:51:20.898Z,6.77
2023-03-04T16:53:56.493Z,6.63
2023-03-04T16:56:23.853Z,6.57
2023-03-04T16:58:50.689Z,6.55
2023-03-04T17:01:28.928Z,6.46
2023-03-04T17:03:56.775Z,6.46
2023-03-04T17:06:25.048Z,6.35
2023-03-04T17:08:52.161Z,6.35
2023-03-04T17:11:23.746Z,6.21
2023-03-04T17:13:51.092Z,6.21
2023-03-04T17:16:18.724Z,6.04
2023-03-04T17:18:46.212Z,6.03
2023-03-04T17:21:16.342Z,6.04
2023-03-04T17:23:43.063Z,5.89
2023-03-04T17:26:09.887Z,5.82
2023-03-04T17:28:36.907Z,5.72
2023-03-04T17:31:13.114Z,5.80
2023-03-04T17:33:40.065Z,5.61
2023-03-04T17:36:08.900Z,5.50
2023-03-04T17:38:37.688Z,5.50
2023-03-04T17:41:06.060Z,5.56
2023-03-04T17:43:32.793Z,5.42
2023-03-04T17:46:07.801Z,5.36
2023-03-04T17:48:34.895Z,5.34
2023-03-04T17:51:02.052Z,5.30
2023-03-04T17:53:30.074Z,5.24
2023-03-04T17:56:01.840Z,5.14
2023-03-04T17:58:30.660Z,5.13
2023-03-04T18:01:19.014Z,5.06
2023-03-04T18:03:46.134Z,5.17
2023-03-04T18:06:12.942Z,5.17
2023-03-04T18:08:39.600Z,4.98
2023-03-04T18:11:06.548Z,4.98
2023-03-04T18:13:33.399Z,4.98
2023-03-04T18:16:00.251Z,5.07
2023-03-04T18:18:27.003Z,5.02
2023-03-04T18:21:00.613Z,5.06
2023-03-04T18:23:28.661Z,4.98
2023-03-04T18:25:56.199Z,4.98
2023-03-04T18:28:23.225Z,4.98
2023-03-04T18:30:54.292Z,4.97
2023-03-04T18:33:21.578Z,5.00
2023-03-04T18:35:48.437Z,4.95
2023-03-04T18:38:15.340Z,4.86
2023-03-04T18:40:43.264Z,5.00
2023-03-04T18:43:10.090Z,4.93
2023-03-04T18:45:36.864Z,4.86
2023-03-04T18:48:04.388Z,4.82
2023-03-04T18:50:31.116Z,4.83
2023-03-04T18:52:58.279Z,4.82
2023-03-04T18:55:25.111Z,4.89
2023-03-04T18:57:54.883Z,4.84
2023-03-04T19:00:24.085Z,4.76
2023-03-04T19:02:56.016Z,4.82
2023-03-04T19:05:28.966Z,4.77
2023-03-04T19:07:55.974Z,4.82
2023-03-04T19:10:23.802Z,4.87
2023-03-04T19:12:50.728Z,4.90
2023-03-04T19:15:18.414Z,4.91
2023-03-04T19:17:46.182Z,4.93
2023-03-04T19:20:14.010Z,4.93
2023-03-04T19:22:40.859Z,4.86
2023-03-04T19:25:08.248Z,4.77
2023-03-04T19:27:35.136Z,4.72
2023-03-04T19:30:02.190Z,4.73
2023-03-04T19:32:29.568Z,4.74
2023-03-04T19:34:56.300Z,4.71
2023-03-04T19:37:23.065Z,4.67
2023-03-04T19:39:50.384Z,4.65
2023-03-04T19:42:17.282Z,4.64
2023-03-04T19:44:45.108Z,4.60
2023-03-04T19:47:12.049Z,4.56
2023-03-04T19:49:38.778Z,4.51
2023-03-04T19:52:05.776Z,4.52
2023-03-04T19:54:33.248Z,4.52
2023-03-04T19:57:00.236Z,4.52
2023-03-04T19:59:27.012Z,4.48
2023-03-04T20:01:54.230Z,4.44
2023-03-04T20:04:21.949Z,4.39
2023-03-04T20:06:50.856Z,4.41
2023-03-04T20:09:18.464Z,4.39
2023-03-04T20:11:57.313Z,4.41
2023-03-04T20:14:25.211Z,4.33
2023-03-04T20:16:51.932Z,4.32
2023-03-04T20:19:18.641Z,4.34
2023-03-04T20:21:45.385Z,4.24
2023-03-04T20:24:13.096Z,4.20
2023-03-04T20:26:39.815Z,4.18
2023-03-04T20:29:06.563Z,4.13
2023-03-04T20:31:38.428Z,4.14
2023-03-04T20:34:06.329Z,4.17
2023-03-04T20:36:34.575Z,4.18
2023-03-04T20:39:02.723Z,4.12
2023-03-04T20:41:30.456Z,4.10
2023-03-04T20:43:57.311Z,4.11
2023-03-04T20:46:43.284Z,3.99
2023-03-04T20:49:13.335Z,3.99
2023-03-04T20:51:40.710Z,3.96
2023-03-04T20:54:08.179Z,3.96
2023-03-04T20:56:35.688Z,3.95
2023-03-04T20:59:04.480Z,3.97
2023-03-04T21:01:31.770Z,4.00
2023-03-04T21:03:59.929Z,4.03
2023-03-04T21:06:28.521Z,4.06
2023-03-04T21:08:56.128Z,4.09
2023-03-04T21:11:26.070Z,4.13
2023-03-04T21:13:56.302Z,4.13
2023-03-04T21:16:28.013Z,4.15
2023-03-04T21:18:55.151Z,4.14
2023-03-04T21:21:26.903Z,4.16
2023-03-04T21:23:55.089Z,4.17
2023-03-04T21:26:22.792Z,4.19
2023-03-04T21:28:50.975Z,4.19
2023-03-04T21:31:22.306Z,4.18
2023-03-04T21:33:49.547Z,4.19
2023-03-04T21:36:16.411Z,4.19
2023-03-04T21:38:44.129Z,4.23
2023-03-04T21:41:16.096Z,4.26
2023-03-04T21:43:43.227Z,4.32
2023-03-04T21:46:10.444Z,4.41
2023-03-04T21:48:37.385Z,4.48
2023-03-04T21:51:09.286Z,4.56
2023-03-04T21:53:36.582Z,4.65
2023-03-04T21:56:04.848Z,4.74
2023-03-04T21:58:35.080Z,4.86
2023-03-04T22:01:09.198Z,4.91
2023-03-04T22:03:36.012Z,4.95
2023-03-04T22:06:06.117Z,5.01
2023-03-04T22:08:32.875Z,5.04
2023-03-04T22:11:04.466Z,5.06
2023-03-04T22:13:31.373Z,5.13
2023-03-04T22:15:58.985Z,5.17
2023-03-04T22:18:26.417Z,5.14
2023-03-04T22:20:58.889Z,5.08
2023-03-04T22:23:25.645Z,5.04
2023-03-04T22:25:52.369Z,5.15
2023-03-04T22:28:19.085Z,5.20
2023-03-04T22:30:45.835Z,5.12
2023-03-04T22:33:12.632Z,5.17
2023-03-04T22:35:42.613Z,5.20
2023-03-04T22:38:09.324Z,5.23
2023-03-04T22:40:36.058Z,5.30
2023-03-04T22:43:02.726Z,5.29
2023-03-04T22:45:31.140Z,5.29
2023-03-04T22:47:57.885Z,5.32
2023-03-04T22:50:25.061Z,5.28
2023-03-04T22:52:52.033Z,5.33
2023-03-04T22:55:20.744Z,5.38
2023-03-04T22:57:47.879Z,5.37
2023-03-04T23:00:17.647Z,5.34
2023-03-04T23:02:59.783Z,5.32
2023-03-04T23:05:26.645Z,5.32
2023-03-04T23:07:53.751Z,5.35
2023-03-04T23:10:25.202Z,5.28
2023-03-04T23:12:52.694Z,5.33
2023-03-04T23:15:20.297Z,5.37
2023-03-04T23:17:47.373Z,5.47
2023-03-04T23:20:17.718Z,5.49
2023-03-04T23:22:45.823Z,5.54
2023-03-04T23:25:13.566Z,5.62
2023-03-04T23:27:42.467Z,5.68
2023-03-04T23:30:16.901Z,5.69
2023-03-04T23:32:44.842Z,5.77
2023-03-04T23:35:12.035Z,5.79
2023-03-04T23:37:39.061Z,5.79
2023-03-04T23:40:06.315Z,5.82
2023-03-04T23:42:33.153Z,5.83
2023-03-04T23:45:00.054Z,5.82
2023-03-04T23:47:26.822Z,5.84
2023-03-04T23:49:53.657Z,5.82
2023-03-04T23:52:20.456Z,5.82
2023-03-04T23:54:47.222Z,5.85
2023-03-04T23:57:14.051Z,5.87
2023-03-04T23:59:40.928Z,5.87
